Time;durP1;ratioP1;P1;durP2;ratioP2;P2;SDS_P1;SDS_P2;PMS_P1;PMS_P2;Temp;Humidity;BMP_temperature;BMP_pressure;BME280_temperature;BME280_humidity;BME280_pressure;Samples;Min_cycle;Max_cycle;Signal;HPM_P1;HPM_P2
2021/04/26 00:00:31;;;;;;;5.18;3.22;;;;;;;5.23;82.13;93118.44;5132398;27;20051;-78
2021/04/26 00:02:58;;;;;;;9.65;4.40;;;;;;;5.31;82.27;93123.44;5132620;27;20267;-78
2021/04/26 00:05:26;;;;;;;5.45;2.35;;;;;;;5.32;82.43;93122.47;5132056;27;20140;-77
2021/04/26 00:07:52;;;;;;;6.68;3.35;;;;;;;5.40;82.57;93124.13;5132179;27;20512;-77
2021/04/26 00:10:19;;;;;;;4.68;3.03;;;;;;;5.39;82.72;93129.41;5132351;27;20051;-78
2021/04/26 00:12:46;;;;;;;8.85;4.15;;;;;;;5.26;82.13;93110.47;5132145;27;20422;-78
2021/04/26 00:15:18;;;;;;;6.28;3.65;;;;;;;5.30;83.50;93124.44;5132180;27;20043;-77
2021/04/26 00:17:46;;;;;;;3.58;2.40;;;;;;;5.30;82.75;93124.44;5131819;27;20043;-78
2021/04/26 00:20:14;;;;;;;7.75;3.13;;;;;;;5.28;83.19;93128.13;5132135;27;20043;-77
2021/04/26 00:22:40;;;;;;;6.40;4.03;;;;;;;5.22;84.20;93127.88;5131834;27;20043;-77
2021/04/26 00:25:08;;;;;;;7.50;4.13;;;;;;;5.22;84.54;93129.59;5132065;27;20058;-77
2021/04/26 00:27:34;;;;;;;10.77;3.80;;;;;;;5.16;83.66;93137.97;5131973;27;20047;-77
2021/04/26 00:30:00;;;;;;;7.65;3.05;;;;;;;5.13;83.98;93140.88;5131705;27;20073;-77
2021/04/26 00:32:26;;;;;;;;;;;;;;;5.04;84.03;93148.59;5131999;27;20092;-77
2021/04/26 00:34:54;;;;;;;6.05;2.67;;;;;;;4.87;84.70;93149.75;5131782;27;19946;-77
2021/04/26 00:37:20;;;;;;;5.50;2.92;;;;;;;4.87;85.09;93157.38;5131566;27;20050;-77
2021/04/26 00:39:46;;;;;;;;;;;;;;;4.82;85.28;93163.00;5131948;27;20229;-81
2021/04/26 00:42:12;;;;;;;4.78;2.78;;;;;;;4.76;85.35;93161.94;5131672;27;19965;-79
2021/04/26 00:44:39;;;;;;;;;;;;;;;4.75;84.75;93165.47;5132169;27;20043;-79
2021/04/26 00:47:05;;;;;;;6.00;2.33;;;;;;;4.66;85.27;93163.94;5131670;27;19923;-79
2021/04/26 00:49:31;;;;;;;;;;;;;;;4.68;85.32;93169.69;5131917;27;20162;-79
2021/04/26 00:51:58;;;;;;;4.32;2.50;;;;;;;4.60;85.40;93172.28;5131507;27;19989;-79
2021/04/26 00:54:25;;;;;;;8.02;2.92;;;;;;;4.61;85.98;93173.84;5130989;27;20555;-80
2021/04/26 00:56:51;;;;;;;4.60;2.65;;;;;;;4.46;85.73;93161.13;5131184;27;20051;-79
2021/04/26 00:59:18;;;;;;;5.82;2.83;;;;;;;4.47;85.72;93160.94;5131147;27;20054;-79
2021/04/26 01:01:46;;;;;;;3.92;2.28;;;;;;;4.50;86.43;93170.00;5131318;27;20543;-78
2021/04/26 01:04:12;;;;;;;5.80;2.45;;;;;;;4.43;86.92;93172.44;5131490;27;20047;-77
2021/04/26 01:06:38;;;;;;;4.55;2.40;;;;;;;4.39;86.74;93176.28;5131049;27;20051;-77
2021/04/26 01:09:06;;;;;;;;;;;;;;;4.37;87.44;93184.09;5131324;27;20043;-78
2021/04/26 01:11:42;;;;;;;3.85;2.80;;;;;;;4.37;89.28;93180.75;5130815;27;19923;-78
2021/04/26 01:14:20;;;;;;;8.70;3.83;;;;;;;4.39;88.35;93183.91;5131051;27;20043;-77
2021/04/26 01:16:53;;;;;;;6.32;2.92;;;;;;;4.33;88.34;93174.41;5130833;27;20095;-78
2021/04/26 01:19:57;;;;;;;5.13;3.33;;;;;;;4.37;87.60;93184.09;5130958;27;20050;-78
2021/04/26 01:22:35;;;;;;;6.00;3.58;;;;;;;4.39;88.16;93186.44;5105561;27;20059;-77
2021/04/26 01:25:07;;;;;;;5.32;2.38;;;;;;;4.33;86.90;93184.59;5130580;27;20051;-79
2021/04/26 01:27:55;;;;;;;5.13;3.22;;;;;;;4.31;86.61;93187.31;5130842;27;20137;-77
2021/04/26 01:30:26;;;;;;;4.82;2.72;;;;;;;4.26;86.44;93192.13;5130599;27;20492;-77
2021/04/26 01:33:14;;;;;;;5.32;3.13;;;;;;;4.19;86.59;93189.47;5130829;27;20054;-77
2021/04/26 01:35:41;;;;;;;3.53;2.50;;;;;;;4.20;86.09;93187.69;5130857;27;20100;-77
2021/04/26 01:38:12;;;;;;;3.97;3.63;;;;;;;4.13;87.35;93182.53;5130603;27;20050;-78
2021/04/26 01:40:42;;;;;;;4.95;3.22;;;;;;;4.11;87.31;93190.31;5130550;27;20104;-77
2021/04/26 01:43:09;;;;;;;5.68;4.22;;;;;;;4.12;86.81;93188.59;5130853;27;20051;-77
2021/04/26 01:45:37;;;;;;;4.63;2.78;;;;;;;4.10;86.78;93186.19;5130584;27;20039;-79
2021/04/26 01:48:05;;;;;;;5.40;2.70;;;;;;;4.09;86.39;93173.66;5130286;27;20043;-79
2021/04/26 01:50:32;;;;;;;6.85;3.67;;;;;;;3.97;86.25;93168.16;5130326;27;20043;-77
2021/04/26 01:52:59;;;;;;;4.15;3.17;;;;;;;4.09;87.00;93191.44;5130524;27;20043;-78
2021/04/26 01:55:27;;;;;;;4.78;3.05;;;;;;;4.12;86.77;93186.81;5130402;27;20043;-77
2021/04/26 01:57:57;;;;;;;5.78;3.33;;;;;;;4.11;87.40;93181.91;5130304;27;20546;-78
2021/04/26 02:00:26;;;;;;;5.85;3.65;;;;;;;4.05;87.84;93191.00;5129783;27;20065;-78
2021/04/26 02:02:53;;;;;;;17.10;5.80;;;;;;;4.06;88.26;93181.63;5130276;27;20044;-77
2021/04/26 02:05:22;;;;;;;35.60;14.05;;;;;;;3.98;88.31;93180.72;5130410;27;20402;-79
2021/04/26 02:07:50;;;;;;;18.92;8.45;;;;;;;3.98;88.67;93177.41;5129856;28;20054;-78
2021/04/26 02:10:18;;;;;;;10.98;5.97;;;;;;;3.95;88.07;93180.28;5130335;27;20405;-78
2021/04/26 02:12:45;;;;;;;7.30;4.53;;;;;;;3.82;88.52;93175.75;5130659;27;20481;-77
2021/04/26 02:15:15;;;;;;;6.65;3.90;;;;;;;3.84;87.53;93179.69;5130085;27;20047;-77
2021/04/26 02:17:43;;;;;;;5.78;2.58;;;;;;;3.72;87.32;93184.41;5130339;27;20403;-77
2021/04/26 02:20:11;;;;;;;5.32;2.95;;;;;;;3.68;87.70;93178.06;5129840;27;20562;-77
2021/04/26 02:22:38;;;;;;;5.07;3.15;;;;;;;3.65;87.40;93182.69;5130233;27;20116;-77
2021/04/26 02:25:08;;;;;;;5.90;3.00;;;;;;;3.60;87.96;93183.97;5130439;27;20481;-77
2021/04/26 02:27:34;;;;;;;5.97;3.05;;;;;;;3.53;87.85;93177.19;5129921;27;20047;-77
2021/04/26 02:30:00;;;;;;;;;;;;;;;3.52;88.59;93190.84;5130663;27;20093;-78
2021/04/26 02:32:29;;;;;;;4.35;2.50;;;;;;;3.47;88.93;93186.25;5129963;28;19920;-77
2021/04/26 02:34:58;;;;;;;3.85;3.15;;;;;;;3.41;88.53;93189.44;5129863;27;20047;-77
2021/04/26 02:37:32;;;;;;;4.38;2.20;;;;;;;3.37;89.08;93189.00;5129656;27;20047;-76
2021/04/26 02:40:05;;;;;;;4.30;2.17;;;;;;;3.37;88.76;93196.63;5129696;27;20513;-77
2021/04/26 02:42:33;;;;;;;3.38;2.30;;;;;;;3.32;89.13;93194.59;5130075;27;20051;-77
2021/04/26 02:45:00;;;;;;;6.85;3.38;;;;;;;3.30;89.72;93191.44;5129642;27;20052;-76
2021/04/26 02:47:28;;;;;;;5.07;3.13;;;;;;;3.30;89.75;93188.09;5129806;27;20039;-77
2021/04/26 02:49:55;;;;;;;10.57;4.35;;;;;;;3.29;90.96;93199.97;5129698;27;20055;-76
2021/04/26 02:52:22;;;;;;;7.07;3.92;;;;;;;3.38;90.11;93194.88;5129952;27;20095;-77
2021/04/26 02:54:49;;;;;;;11.68;6.25;;;;;;;3.36;89.73;93201.84;5129735;27;20043;-77
2021/04/26 02:57:16;;;;;;;12.40;5.72;;;;;;;3.33;90.62;93197.91;5129887;27;20039;-77
2021/04/26 02:59:44;;;;;;;10.05;5.50;;;;;;;3.15;90.71;93191.31;5129897;27;20043;-78
2021/04/26 03:02:13;;;;;;;6.65;4.18;;;;;;;3.22;90.68;93204.13;5129797;27;20112;-78
2021/04/26 03:04:41;;;;;;;8.30;4.38;;;;;;;3.25;90.34;93213.97;5129507;27;20511;-79
2021/04/26 03:07:08;;;;;;;5.47;3.40;;;;;;;3.28;89.70;93205.25;5129751;27;20066;-79
2021/04/26 03:09:36;;;;;;;5.65;3.90;;;;;;;3.35;90.06;93211.22;5129503;27;20051;-78
2021/04/26 03:12:03;;;;;;;6.05;3.63;;;;;;;3.34;nan;93207.88;5130530;27;20051;-78
2021/04/26 03:14:31;;;;;;;6.15;3.95;;;;;;;3.33;90.84;93205.50;5133216;27;20465;-78
2021/04/26 03:16:58;;;;;;;6.20;4.53;;;;;;;3.28;90.45;93202.69;5133748;27;20112;-79
2021/04/26 03:19:25;;;;;;;6.30;2.45;;;;;;;3.33;90.78;93216.47;5133241;27;20051;-77
2021/04/26 03:21:54;;;;;;;4.68;3.28;;;;;;;3.24;91.09;93219.22;5133224;27;20054;-77
2021/04/26 03:24:20;;;;;;;8.63;3.58;;;;;;;3.26;92.12;93225.72;5133240;27;20148;-77
2021/04/26 03:26:49;;;;;;;17.58;7.93;;;;;;;3.26;92.13;93223.16;5132951;27;20054;-76
2021/04/26 03:29:18;;;;;;;46.90;15.75;;;;;;;3.42;91.61;93240.09;5132985;27;20563;-76
2021/04/26 03:31:46;;;;;;;21.90;11.02;;;;;;;3.44;90.76;93247.53;5132806;27;20050;-76
2021/04/26 03:34:13;;;;;;;21.50;9.57;;;;;;;3.33;92.01;93243.59;5132919;27;20054;-76
2021/04/26 03:36:41;;;;;;;11.60;6.22;;;;;;;3.23;92.87;93241.25;5132909;27;20051;-76
2021/04/26 03:39:09;;;;;;;15.05;6.25;;;;;;;3.13;93.08;93241.44;5132808;27;20047;-76
2021/04/26 03:41:36;;;;;;;11.52;6.13;;;;;;;3.03;93.20;93223.06;5132887;27;20054;-76
2021/04/26 03:44:04;;;;;;;13.98;7.15;;;;;;;3.12;93.45;93242.41;5132686;27;20062;-76
2021/04/26 03:46:30;;;;;;;11.93;4.93;;;;;;;3.00;93.73;93236.88;5132827;27;20051;-79
2021/04/26 03:48:57;;;;;;;10.50;5.57;;;;;;;3.10;95.06;93249.38;5132504;27;20574;-80
2021/04/26 03:51:24;;;;;;;8.20;5.13;;;;;;;3.07;94.52;93245.41;5132611;27;20489;-80
2021/04/26 03:53:50;;;;;;;5.97;4.60;;;;;;;3.15;94.73;93246.38;5132830;27;20054;-79
2021/04/26 03:56:16;;;;;;;7.15;4.22;;;;;;;3.18;93.97;93240.94;5132440;27;20043;-77
2021/04/26 03:58:43;;;;;;;7.60;3.90;;;;;;;3.22;94.11;93249.81;5132672;27;20516;-77
2021/04/26 04:01:09;;;;;;;;;;;;;;;3.33;93.86;93246.94;5132726;27;20043;-77
2021/04/26 04:03:39;;;;;;;9.27;4.22;;;;;;;3.31;93.00;93248.84;5132225;27;20370;-76
2021/04/26 04:06:06;;;;;;;7.45;4.35;;;;;;;3.34;93.10;93255.34;5132563;27;20051;-79
2021/04/26 04:08:32;;;;;;;6.97;4.03;;;;;;;3.40;92.45;93262.31;5132425;27;20112;-80
2021/04/26 04:10:58;;;;;;;;;;;;;;;3.46;92.50;93259.13;5132849;27;20047;-80
2021/04/26 04:13:25;;;;;;;10.10;4.97;;;;;;;3.46;92.50;93266.72;5132101;27;19950;-79
2021/04/26 04:15:51;;;;;;;14.10;6.68;;;;;;;3.48;93.02;93269.88;5132318;27;20081;-80
2021/04/26 04:18:17;;;;;;;;;;;;;;;3.60;91.62;93265.25;5132513;27;20039;-79
2021/04/26 04:20:43;;;;;;;7.78;4.85;;;;;;;3.65;91.52;93272.38;5131817;27;19927;-81
2021/04/26 04:23:10;;;;;;;;;;;;;;;3.69;90.08;93277.91;5132499;27;20430;-80
2021/04/26 04:25:36;;;;;;;13.85;5.78;;;;;;;3.60;90.95;93277.97;5132054;27;20021;-80
2021/04/26 04:28:03;;;;;;;;;;;;;;;3.72;91.21;93280.94;5132188;27;20842;-81
2021/04/26 04:30:29;;;;;;;7.18;4.95;;;;;;;3.73;91.25;93277.44;5131453;27;19919;-80
2021/04/26 04:32:55;;;;;;;6.20;4.70;;;;;;;3.86;91.40;93271.00;5131910;27;20043;-82
2021/04/26 04:35:21;;;;;;;;;;;;;;;4.07;91.81;93278.03;5132396;27;20059;-82
2021/04/26 04:37:48;;;;;;;7.15;4.55;;;;;;;4.07;89.50;93259.47;5131733;27;19968;-81
2021/04/26 04:40:15;;;;;;;;;;;;;;;4.37;89.92;93285.81;5132581;27;20043;-80
2021/04/26 04:42:41;;;;;;;11.45;5.70;;;;;;;4.47;90.13;93280.50;5131692;27;19919;-80
2021/04/26 04:45:07;;;;;;;;;;;;;;;4.59;89.16;93269.94;5131689;27;20526;-80
2021/04/26 04:47:34;;;;;;;9.25;4.90;;;;;;;4.77;88.88;93272.19;5131577;27;19923;-80
2021/04/26 04:50:00;;;;;;;;;;;;;;;4.93;88.96;93278.88;5132281;27;20440;-80
2021/04/26 04:52:26;;;;;;;8.18;5.22;;;;;;;5.16;87.83;93275.47;5131539;27;19919;-80
2021/04/26 04:54:52;;;;;;;8.57;3.90;;;;;;;5.36;87.29;93275.75;5131492;27;20058;-81
2021/04/26 04:57:19;;;;;;;;;;;;;;;5.59;87.80;93273.09;5132084;27;20452;-80
2021/04/26 04:59:45;;;;;;;9.50;5.28;;;;;;;5.65;86.69;93263.19;5131012;27;20410;-80
2021/04/26 05:02:12;;;;;;;;;;;;;;;5.94;84.60;93279.38;5131804;27;20078;-79
2021/04/26 05:04:38;;;;;;;12.35;4.60;;;;;;;6.10;82.90;93279.19;5131332;27;19964;-79
2021/04/26 05:07:04;;;;;;;;;;;;;;;6.29;81.74;93284.69;5131831;27;20047;-83
2021/04/26 05:09:30;;;;;;;8.43;5.18;;;;;;;6.31;81.28;93259.00;5130999;27;19919;-79
2021/04/26 05:11:56;;;;;;;;;;;;;;;6.72;81.10;93289.03;5126809;27;20056;-82
2021/04/26 05:14:25;;;;;;;12.02;6.82;;;;;;;6.83;80.28;93290.28;5129102;27;19931;-79
2021/04/26 05:16:52;;;;;;;12.63;7.97;;;;;;;7.02;78.85;93295.72;5131202;27;20059;-78
2021/04/26 05:19:18;;;;;;;10.93;6.45;;;;;;;7.13;75.93;93291.88;5130680;27;20459;-83
2021/04/26 05:21:44;;;;;;;;;;;;;;;7.35;76.40;93287.47;5131533;27;20047;-80
2021/04/26 05:24:11;;;;;;;10.70;4.78;;;;;;;7.41;76.46;93278.28;5130842;27;19919;-82
2021/04/26 05:26:37;;;;;;;10.23;5.10;;;;;;;7.15;77.26;93259.25;5130891;27;20055;-81
2021/04/26 05:29:04;;;;;;;11.90;5.00;;;;;;;6.91;79.30;93269.69;5130513;27;20478;-82
2021/04/26 05:31:31;;;;;;;12.65;6.68;;;;;;;7.01;79.30;93250.72;5131001;27;20095;-81
2021/04/26 05:33:58;;;;;;;13.30;6.07;;;;;;;7.35;78.51;93272.94;5130745;27;20062;-82
2021/04/26 05:36:24;;;;;;;10.98;6.25;;;;;;;7.59;76.93;93267.56;5130350;27;20538;-82
2021/04/26 05:38:50;;;;;;;8.57;5.03;;;;;;;8.03;74.82;93273.25;5131068;27;20051;-82
2021/04/26 05:41:17;;;;;;;;;;;;;;;8.40;72.54;93273.75;5140173;27;20051;-81
2021/04/26 05:43:43;;;;;;;11.48;4.63;;;;;;;8.62;71.07;93254.88;5140536;27;19923;-82
2021/04/26 05:46:09;;;;;;;;;;;;;;;9.09;69.80;93270.25;5136985;27;20386;-80
2021/04/26 05:48:36;;;;;;;10.50;6.10;;;;;;;9.42;68.20;93264.28;5130757;27;19920;-82
2021/04/26 05:51:03;;;;;;;8.80;5.82;;;;;;;9.60;67.19;93271.34;5130556;27;20054;-78
2021/04/26 05:53:29;;;;;;;11.98;5.82;;;;;;;9.68;66.90;93264.41;5130514;27;20957;-79
2021/04/26 05:55:55;;;;;;;;;;;;;;;9.96;65.54;93263.34;5130706;27;20410;-79
2021/04/26 05:58:21;;;;;;;11.35;6.45;;;;;;;10.05;64.64;93264.69;5126942;28;19956;-81
2021/04/26 06:00:48;;;;;;;11.65;6.00;;;;;;;10.13;63.96;93253.38;5127976;27;20050;-80
2021/04/26 06:03:14;;;;;;;8.32;4.68;;;;;;;10.10;62.74;93269.19;5129017;27;20048;-80
2021/04/26 06:05:42;;;;;;;10.80;5.10;;;;;;;10.05;64.56;93269.81;5130099;27;20558;-81
2021/04/26 06:08:08;;;;;;;9.15;6.25;;;;;;;10.47;62.82;93271.19;5130041;27;20066;-81
2021/04/26 06:10:34;;;;;;;;;;;;;;;10.86;60.91;93260.84;5130727;27;20092;-82
2021/04/26 06:13:00;;;;;;;11.65;5.32;;;;;;;11.06;60.84;93235.75;5130257;27;19927;-83
2021/04/26 06:15:27;;;;;;;;;;;;;;;11.51;59.96;93259.66;5130219;27;20274;-82
2021/04/26 06:18:05;;;;;;;10.73;6.13;;;;;;;11.83;57.45;93256.16;5129999;28;19923;-81
2021/04/26 06:20:32;;;;;;;14.20;5.88;;;;;;;11.93;57.21;93242.81;5130181;27;20122;-81
2021/04/26 06:22:59;;;;;;;;;;;;;;;11.94;57.80;93242.56;5130388;27;20490;-81
2021/04/26 06:25:25;;;;;;;12.77;5.97;;;;;;;11.88;57.53;93238.28;5129921;28;20363;-80
2021/04/26 06:27:51;;;;;;;;;;;;;;;12.01;57.59;93248.44;5130611;27;20070;-81
2021/04/26 06:30:18;;;;;;;16.08;6.00;;;;;;;12.38;56.35;93249.38;5130047;27;19923;-81
2021/04/26 06:32:45;;;;;;;14.43;6.55;;;;;;;12.41;55.12;93244.56;5120834;27;20047;-81
2021/04/26 06:35:11;;;;;;;11.85;6.32;;;;;;;12.85;56.28;93240.94;5120300;27;20517;-81
2021/04/26 06:37:38;;;;;;;14.93;5.70;;;;;;;13.29;53.87;93226.94;5118675;27;20035;-81
2021/04/26 06:40:05;;;;;;;;;;;;;;;13.66;52.89;93237.00;5117799;28;20048;-82
2021/04/26 06:42:32;;;;;;;10.48;4.90;;;;;;;13.92;51.96;93221.25;5117295;28;19976;-81
2021/04/26 06:44:58;;;;;;;;;;;;;;;14.13;52.10;93218.00;5129947;28;20047;-81
2021/04/26 06:47:24;;;;;;;7.93;4.30;;;;;;;14.10;51.67;93218.47;5130067;27;19924;-81
2021/04/26 06:49:50;;;;;;;10.05;4.70;;;;;;;14.22;51.41;93209.91;5133856;27;20490;-81
2021/04/26 06:52:16;;;;;;;;;;;;;;;14.52;49.51;93232.88;5129873;27;20043;-81
2021/04/26 06:54:43;;;;;;;7.53;3.60;;;;;;;14.83;50.14;93233.38;5123306;27;20282;-81
2021/04/26 06:57:10;;;;;;;;;;;;;;;15.05;48.36;93229.34;5113894;27;20052;-81
2021/04/26 06:59:36;;;;;;;7.93;4.60;;;;;;;14.75;48.31;93218.28;5112885;28;19920;-81
2021/04/26 07:02:02;;;;;;;;;;;;;;;15.03;48.78;93231.34;5113406;28;20051;-81
2021/04/26 07:04:28;;;;;;;8.85;4.85;;;;;;;15.16;48.55;93232.84;5112082;28;19980;-81
2021/04/26 07:06:54;;;;;;;;;;;;;;;15.28;48.45;93233.50;5112668;28;20062;-81
2021/04/26 07:09:21;;;;;;;8.95;3.90;;;;;;;15.58;47.91;93231.56;5113126;28;19959;-80
2021/04/26 07:11:47;;;;;;;6.68;3.88;;;;;;;15.99;48.18;93242.47;5112690;28;20097;-81
2021/04/26 07:14:14;;;;;;;;;;;;;;;16.09;48.19;93218.47;5112965;28;20056;-80
2021/04/26 07:16:41;;;;;;;7.72;4.05;;;;;;;16.40;47.46;93236.88;5112823;28;19919;-81
2021/04/26 07:19:07;;;;;;;12.98;4.10;;;;;;;16.50;47.23;93232.84;5112714;27;20051;-80
2021/04/26 07:21:33;;;;;;;;;;;;;;;16.60;46.64;93240.72;5112866;28;20051;-80
2021/04/26 07:24:00;;;;;;;8.18;4.55;;;;;;;16.93;45.82;93238.09;5112594;28;19927;-81
2021/04/26 07:26:26;;;;;;;7.93;3.92;;;;;;;17.27;45.48;93235.25;5112256;27;20525;-81
2021/04/26 07:28:52;;;;;;;7.30;4.30;;;;;;;17.53;44.59;93229.44;5112579;28;20048;-81
2021/04/26 07:31:20;;;;;;;8.38;4.40;;;;;;;17.61;42.97;93242.72;5112298;27;20486;-81
2021/04/26 07:33:46;;;;;;;10.52;5.32;;;;;;;17.00;44.07;93254.28;5112369;28;20489;-81
2021/04/26 07:36:12;;;;;;;;;;;;;;;17.06;45.86;93250.72;5112918;28;20058;-80
2021/04/26 07:38:39;;;;;;;5.30;3.55;;;;;;;17.20;44.07;93248.47;5112501;28;19920;-81
2021/04/26 07:41:05;;;;;;;15.00;5.13;;;;;;;17.47;45.23;93245.00;5112067;28;20055;-81
2021/04/26 07:43:31;;;;;;;8.77;5.18;;;;;;;17.15;45.45;93248.44;5112186;27;20052;-80
2021/04/26 07:45:58;;;;;;;9.57;4.15;;;;;;;16.99;44.63;93244.13;5112161;28;20040;-80
2021/04/26 07:48:25;;;;;;;5.85;3.33;;;;;;;16.67;43.58;93240.53;5112119;28;20092;-81
2021/04/26 07:50:51;;;;;;;11.95;4.22;;;;;;;16.90;45.40;93239.38;5112231;28;20396;-81
2021/04/26 07:53:18;;;;;;;6.13;3.20;;;;;;;17.42;44.33;93231.19;5111847;28;20047;-81
2021/04/26 07:55:44;;;;;;;6.10;3.45;;;;;;;17.20;42.77;93206.13;5112060;28;20486;-80
2021/04/26 07:58:10;;;;;;;8.38;3.72;;;;;;;17.57;43.18;93207.09;5111247;28;20044;-81
2021/04/26 08:00:37;;;;;;;6.60;2.72;;;;;;;17.82;40.84;93201.22;5111985;28;20059;-81
2021/04/26 08:03:03;;;;;;;6.05;2.85;;;;;;;18.25;39.12;93223.75;5111884;28;20429;-81
2021/04/26 08:05:31;;;;;;;7.28;2.85;;;;;;;18.58;39.79;93216.50;5112177;28;20070;-82
2021/04/26 08:07:57;;;;;;;8.77;2.40;;;;;;;18.96;32.36;93222.22;5111688;28;20139;-81
2021/04/26 08:10:23;;;;;;;6.38;2.70;;;;;;;19.45;33.87;93211.50;5111808;27;20093;-81
2021/04/26 08:12:50;;;;;;;5.90;2.22;;;;;;;19.80;34.12;93216.88;5111662;28;20482;-81
2021/04/26 08:15:16;;;;;;;4.95;1.83;;;;;;;20.12;33.41;93223.50;5111376;28;20050;-81
2021/04/26 08:17:42;;;;;;;3.70;2.05;;;;;;;20.28;32.69;93216.41;5111610;28;20043;-81
2021/04/26 08:20:09;;;;;;;7.05;2.15;;;;;;;20.47;32.78;93221.75;5111431;28;20044;-81
2021/04/26 08:22:37;;;;;;;4.20;2.00;;;;;;;20.47;31.37;93200.88;5111539;28;20066;-80
2021/04/26 08:25:04;;;;;;;4.05;2.30;;;;;;;20.53;29.84;93218.06;5111500;28;20379;-80
2021/04/26 08:27:30;;;;;;;3.88;2.08;;;;;;;20.23;29.88;93225.00;5111690;28;20047;-80
2021/04/26 08:29:57;;;;;;;4.00;2.40;;;;;;;20.30;32.75;93219.50;5111081;28;20108;-80
2021/04/26 08:32:23;;;;;;;7.07;2.60;;;;;;;20.49;32.00;93217.03;5111185;28;20055;-80
2021/04/26 08:34:49;;;;;;;5.38;2.20;;;;;;;20.72;32.59;93209.56;5111158;28;20051;-80
2021/04/26 08:37:15;;;;;;;3.38;2.05;;;;;;;20.78;29.02;93223.38;5111291;28;20052;-81
2021/04/26 08:39:43;;;;;;;6.03;2.50;;;;;;;20.52;29.22;93207.91;5110891;28;20043;-80
2021/04/26 08:42:09;;;;;;;4.25;2.22;;;;;;;19.83;28.23;93226.75;5110699;28;20054;-82
2021/04/26 08:44:36;;;;;;;4.00;1.90;;;;;;;19.27;28.84;93218.03;5111142;28;20051;-81
2021/04/26 08:47:02;;;;;;;4.90;1.88;;;;;;;19.62;31.23;93224.19;5111423;28;20044;-81
2021/04/26 08:49:28;;;;;;;3.10;2.03;;;;;;;20.06;30.95;93225.38;5110873;28;20040;-81
2021/04/26 08:51:55;;;;;;;6.00;2.20;;;;;;;20.29;31.71;93225.78;5111160;28;20043;-81
2021/04/26 08:54:21;;;;;;;4.65;2.33;;;;;;;20.32;31.70;93224.47;5110899;28;20047;-81
2021/04/26 08:56:48;;;;;;;5.13;2.40;;;;;;;20.76;32.47;93226.25;5110337;28;20051;-81
2021/04/26 08:59:15;;;;;;;5.32;2.38;;;;;;;20.98;31.83;93225.06;5110680;28;20073;-80
2021/04/26 09:01:46;;;;;;;3.67;2.20;;;;;;;21.15;30.09;93218.66;5110531;28;20051;-81
2021/04/26 09:04:13;;;;;;;4.28;2.53;;;;;;;21.35;29.42;93209.84;5110399;28;20584;-81
2021/04/26 09:06:55;;;;;;;6.05;2.47;;;;;;;20.69;31.95;93215.34;5110521;28;20040;-81
2021/04/26 09:09:35;;;;;;;9.77;3.38;;;;;;;21.00;32.19;93222.16;5110661;28;20073;-81
2021/04/26 09:12:04;;;;;;;4.00;2.22;;;;;;;21.03;30.19;93204.13;5110684;28;20047;-81
2021/04/26 09:14:39;;;;;;;3.90;2.38;;;;;;;21.47;31.43;93205.00;5110597;28;20047;-81
2021/04/26 09:17:27;;;;;;;4.35;2.17;;;;;;;21.89;29.94;93213.19;5110539;28;20062;-81
2021/04/26 09:19:55;;;;;;;4.32;2.45;;;;;;;22.15;30.71;93212.88;5110530;28;20056;-81
2021/04/26 09:22:44;;;;;;;5.50;2.20;;;;;;;22.32;30.42;93211.59;5110186;28;20055;-81
2021/04/26 09:25:39;;;;;;;3.63;2.15;;;;;;;22.16;28.01;93206.56;5110486;28;20391;-81
2021/04/26 09:28:08;;;;;;;4.45;2.53;;;;;;;21.40;28.45;93207.19;5110040;28;20048;-81
2021/04/26 09:30:44;;;;;;;4.15;2.50;;;;;;;20.97;29.25;93207.84;5110622;28;20058;-81
2021/04/26 09:33:33;;;;;;;4.10;2.72;;;;;;;21.38;31.45;93209.28;5110401;28;20047;-81
2021/04/26 09:36:03;;;;;;;4.65;2.13;;;;;;;21.73;30.83;93204.75;5110319;28;20718;-81
2021/04/26 09:38:31;;;;;;;5.53;2.85;;;;;;;21.11;31.71;93196.75;5110318;28;20062;-80
2021/04/26 09:41:29;;;;;;;2.97;2.13;;;;;;;21.11;31.34;93212.41;5109890;28;20048;-82
2021/04/26 09:44:09;;;;;;;5.68;2.20;;;;;;;21.25;31.29;93213.34;5109360;27;20096;-82
2021/04/26 09:46:43;;;;;;;4.80;1.95;;;;;;;21.55;30.00;93197.59;5110201;28;20054;-83
2021/04/26 09:49:11;;;;;;;4.00;1.77;;;;;;;21.81;30.55;93195.53;5109979;28;20088;-83
2021/04/26 09:51:37;;;;;;;7.82;3.00;;;;;;;21.79;28.82;93192.38;5110052;28;20044;-83
2021/04/26 09:54:04;;;;;;;4.18;2.10;;;;;;;22.07;30.31;93194.41;5110081;28;20059;-82
2021/04/26 09:56:39;;;;;;;3.17;1.95;;;;;;;22.35;29.15;93197.94;5110062;28;20048;-82
2021/04/26 09:59:07;;;;;;;3.42;2.25;;;;;;;22.48;29.15;93190.44;5109875;28;20139;-82
2021/04/26 10:01:34;;;;;;;3.63;1.92;;;;;;;22.59;29.77;93193.72;5110053;28;20126;-82
2021/04/26 10:04:02;;;;;;;5.25;2.08;;;;;;;22.67;27.37;93193.84;5110043;28;20449;-82
2021/04/26 10:06:28;;;;;;;3.65;2.08;;;;;;;22.34;25.39;93187.75;5109470;28;20048;-81
2021/04/26 10:08:56;;;;;;;3.72;1.85;;;;;;;21.42;26.36;93194.59;5109911;28;20043;-82
2021/04/26 10:11:25;;;;;;;4.53;3.10;;;;;;;21.31;28.06;93187.94;5109932;28;20966;-82
2021/04/26 10:14:00;;;;;;;3.42;1.90;;;;;;;20.79;27.33;93176.09;5109609;28;20040;-82
2021/04/26 10:16:38;;;;;;;3.30;2.03;;;;;;;20.77;25.73;93183.44;5109766;28;20060;-82
2021/04/26 10:19:06;;;;;;;2.30;1.70;;;;;;;21.31;28.48;93162.59;5109636;28;20051;-82
2021/04/26 10:21:34;;;;;;;2.47;1.50;;;;;;;21.44;24.88;93153.28;5111691;28;20047;-83
2021/04/26 10:24:14;;;;;;;5.13;2.28;;;;;;;21.84;27.34;93132.19;5113895;28;20048;-83
2021/04/26 10:26:47;;;;;;;2.25;1.33;;;;;;;21.97;27.93;93133.34;5113670;28;20065;-83
2021/04/26 10:29:17;;;;;;;2.88;1.50;;;;;;;22.15;28.03;93147.47;5113813;28;20067;-83
2021/04/26 10:32:05;;;;;;;3.08;1.55;;;;;;;22.43;29.33;93138.94;5113861;28;20047;-82
2021/04/26 10:34:33;;;;;;;2.58;1.58;;;;;;;22.47;26.79;93134.69;5113638;28;20051;-82
2021/04/26 10:37:02;;;;;;;2.95;1.63;;;;;;;21.69;25.82;93127.13;5113810;28;20043;-83
2021/04/26 10:39:29;;;;;;;3.95;1.92;;;;;;;21.31;26.13;93130.47;5113270;28;20143;-83
2021/04/26 10:42:05;;;;;;;3.67;2.08;;;;;;;20.45;26.81;93129.94;5113392;28;20063;-83
2021/04/26 10:44:49;;;;;;;;;;;;;;;19.80;29.27;93126.41;5113551;27;20139;-83
2021/04/26 10:47:21;;;;;;;4.00;1.93;;;;;;;20.35;30.43;93111.75;5114296;27;19924;-83
2021/04/26 10:49:49;;;;;;;5.20;2.80;;;;;;;21.08;31.02;93117.91;5131804;27;20126;-83
2021/04/26 10:52:43;;;;;;;3.17;2.03;;;;;;;21.58;31.27;93113.41;5134035;27;20047;-83
2021/04/26 10:55:11;;;;;;;5.00;2.25;;;;;;;21.76;29.52;93106.69;5076907;28;20509;-83
2021/04/26 10:57:40;;;;;;;4.20;1.73;;;;;;;22.18;28.52;93104.28;5113372;28;20051;-83
2021/04/26 11:00:43;;;;;;;3.88;1.23;;;;;;;22.22;28.58;93102.63;5113211;28;20074;-84
2021/04/26 11:03:39;;;;;;;3.45;1.30;;;;;;;22.04;27.01;93098.97;5112918;28;20143;-84
2021/04/26 11:06:29;;;;;;;3.65;1.92;;;;;;;21.63;27.46;93097.69;5126198;27;20102;-83
2021/04/26 11:09:12;;;;;;;4.75;1.60;;;;;;;22.05;28.45;93104.97;5156486;27;20054;-83
2021/04/26 11:11:51;;;;;;;6.25;1.42;;;;;;;22.29;27.71;93084.75;5157482;27;20052;-83
2021/04/26 11:14:23;;;;;;;5.13;1.92;;;;;;;22.76;27.48;93084.00;5135642;27;20047;-83
2021/04/26 11:16:58;;;;;;;3.55;1.60;;;;;;;23.12;26.17;93071.28;5133094;27;20561;-83
2021/04/26 11:19:26;;;;;;;2.60;1.10;;;;;;;23.58;26.75;93082.72;5133310;27;20058;-83
2021/04/26 11:21:57;;;;;;;2.97;1.23;;;;;;;23.65;24.75;93085.72;5132938;27;20051;-83
2021/04/26 11:25:02;;;;;;;5.60;1.67;;;;;;;23.83;23.68;93084.03;5132876;27;20498;-83
2021/04/26 11:27:28;;;;;;;;;;;;;;;23.89;24.49;93080.22;5133339;27;20414;-83
2021/04/26 11:30:32;;;;;;;5.38;1.38;;;;;;;23.54;22.08;93066.03;5133065;27;19926;-83
2021/04/26 11:33:13;;;;;;;2.47;1.70;;;;;;;23.08;25.53;93043.06;5131697;27;20050;-83
2021/04/26 11:36:15;;;;;;;3.60;1.20;;;;;;;23.62;23.88;93050.38;5133118;27;20065;-83
2021/04/26 11:38:44;;;;;;;2.45;1.40;;;;;;;23.57;21.86;93047.09;5133009;27;20054;-83
2021/04/26 11:41:10;;;;;;;2.50;1.08;;;;;;;23.38;22.72;93037.53;5132574;27;20054;-84
2021/04/26 11:43:52;;;;;;;2.42;1.38;;;;;;;23.26;22.12;93048.50;5132820;27;20115;-83
2021/04/26 11:46:29;;;;;;;3.63;1.00;;;;;;;22.29;22.76;93053.34;5132595;27;20104;-83
2021/04/26 11:49:15;;;;;;;2.15;1.30;;;;;;;22.43;22.04;93044.72;5132022;27;20051;-83
2021/04/26 11:51:43;;;;;;;2.47;1.10;;;;;;;22.64;22.03;93007.75;5132108;27;20043;-84
2021/04/26 11:54:11;;;;;;;1.98;1.15;;;;;;;22.84;21.27;93014.47;5132570;27;20043;-84